Time;durP1;ratioP1;P1;durP2;ratioP2;P2;SDS_P1;SDS_P2;PMS_P1;PMS_P2;Temp;Humidity;BMP_temperature;BMP_pressure;BME280_temperature;BME280_humidity;BME280_pressure;Samples;Min_cycle;Max_cycle;Signal;HPM_P1;HPM_P2
2022/06/30 00:02:22;;;;;;;7.00;5.20;;;;;;;;;;5051403;28;20307;-65
2022/06/30 00:04:47;;;;;;;7.70;4.97;;;;;;;;;;5051996;28;20534;-65
2022/06/30 00:07:12;;;;;;;7.07;5.10;;;;;;;;;;5050781;28;20590;-65
2022/06/30 00:09:40;;;;;;;7.53;5.20;;;;;;;;;;5052140;28;20290;-65
2022/06/30 00:12:05;;;;;;;6.40;5.07;;;;;;;;;;5051132;28;20207;-65
2022/06/30 00:14:30;;;;;;;6.72;4.97;;;;;;;;;;5050912;28;20211;-65
2022/06/30 00:16:56;;;;;;;7.15;5.10;;;;;;;;;;5051600;28;20207;-65
2022/06/30 00:19:21;;;;;;;7.47;4.63;;;;;;;;;;5051133;28;20562;-65
2022/06/30 00:21:46;;;;;;;7.63;5.03;;;;;;;;;;5050881;28;20214;-65
2022/06/30 00:24:12;;;;;;;7.85;4.90;;;;;;;;;;5051278;28;20223;-65
2022/06/30 00:26:37;;;;;;;7.15;5.13;;;;;;;;;;5051579;28;20290;-65
2022/06/30 00:29:02;;;;;;;6.72;5.40;;;;;;;;;;5050496;28;20598;-65
2022/06/30 00:31:27;;;;;;;9.27;5.63;;;;;;;;;;5051054;28;20213;-65
2022/06/30 00:33:53;;;;;;;8.93;5.30;;;;;;;;;;5051297;28;20219;-65
2022/06/30 00:36:18;;;;;;;6.43;5.20;;;;;;;;;;5050504;28;20215;-65
2022/06/30 00:38:43;;;;;;;7.13;5.57;;;;;;;;;;5051466;28;20210;-66
2022/06/30 00:41:10;;;;;;;7.68;5.90;;;;;;;;;;5050337;28;20214;-65
2022/06/30 00:43:43;;;;;;;8.27;5.93;;;;;;;;;;5050903;28;20268;-65
2022/06/30 00:46:08;;;;;;;8.52;6.45;;;;;;;;;;5050595;28;20643;-65
2022/06/30 00:48:34;;;;;;;9.10;6.63;;;;;;;;;;5050530;28;20282;-65
2022/06/30 00:50:59;;;;;;;11.68;6.75;;;;;;;;;;5051489;28;20225;-65
2022/06/30 00:53:24;;;;;;;7.85;6.15;;;;;;;;;;5051097;28;20196;-65
2022/06/30 00:55:50;;;;;;;9.63;7.00;;;;;;;;;;5032767;28;20223;-65
2022/06/30 00:58:15;;;;;;;9.55;6.60;;;;;;;;;;5050201;28;20708;-65
2022/06/30 01:00:40;;;;;;;11.73;7.45;;;;;;;;;;5033275;28;20234;-65
2022/06/30 01:03:06;;;;;;;9.02;7.70;;;;;;;;;;5049754;28;20223;-65
2022/06/30 01:05:31;;;;;;;7.82;6.93;;;;;;;;;;5051516;28;20227;-65
2022/06/30 01:07:57;;;;;;;8.68;7.18;;;;;;;;;;5033452;28;20219;-66
2022/06/30 01:13:06;;;;;;;8.57;7.63;;;;;;;;;;5050252;28;20259;-65
2022/06/30 01:15:31;;;;;;;9.23;8.27;;;;;;;;;;5050916;28;20215;-65
2022/06/30 01:17:56;;;;;;;10.55;8.75;;;;;;;;;;5050330;28;20207;-65
2022/06/30 01:20:26;;;;;;;9.65;8.65;;;;;;;;;;5050812;28;20265;-65
2022/06/30 01:22:51;;;;;;;10.05;8.98;;;;;;;;;;5050838;28;20214;-65
2022/06/30 01:25:16;;;;;;;11.98;9.85;;;;;;;;;;5049892;28;20226;-65
2022/06/30 01:27:41;;;;;;;11.15;9.98;;;;;;;;;;5050547;28;20203;-65
2022/06/30 01:30:07;;;;;;;11.85;8.70;;;;;;;;;;5050150;28;20756;-65
2022/06/30 01:32:32;;;;;;;11.20;10.00;;;;;;;;;;5050313;28;20575;-65
2022/06/30 01:34:58;;;;;;;11.85;10.02;;;;;;;;;;5051030;28;20344;-65
2022/06/30 01:37:24;;;;;;;9.85;8.85;;;;;;;;;;5050585;28;20230;-65
2022/06/30 01:39:49;;;;;;;12.20;8.68;;;;;;;;;;5050061;28;20272;-65
2022/06/30 01:42:14;;;;;;;11.05;8.13;;;;;;;;;;5050157;28;20207;-65
2022/06/30 01:44:40;;;;;;;8.68;7.18;;;;;;;;;;5049598;28;20215;-65
2022/06/30 01:47:05;;;;;;;9.95;7.63;;;;;;;;;;5050200;28;20221;-65
2022/06/30 01:49:30;;;;;;;9.98;8.52;;;;;;;;;;5050717;28;20207;-65
2022/06/30 01:51:56;;;;;;;8.82;7.80;;;;;;;;;;5050856;28;20302;-65
2022/06/30 01:54:22;;;;;;;9.30;8.32;;;;;;;;;;5053946;28;20286;-65
2022/06/30 01:56:47;;;;;;;9.60;8.60;;;;;;;;;;5054365;28;20219;-65
2022/06/30 01:59:13;;;;;;;10.05;9.05;;;;;;;;;;5052347;28;20587;-65
2022/06/30 02:01:38;;;;;;;13.00;9.65;;;;;;;;;;5054493;28;20306;-65
2022/06/30 02:06:47;;;;;;;11.15;8.48;;;;;;;;;;5053631;28;20218;-65
2022/06/30 02:09:13;;;;;;;11.30;8.70;;;;;;;;;;5053350;28;20207;-65
2022/06/30 02:11:38;;;;;;;11.18;8.70;;;;;;;;;;5053966;28;20260;-65
2022/06/30 02:14:03;;;;;;;10.20;8.43;;;;;;;;;;5035202;28;20219;-65
2022/06/30 02:16:30;;;;;;;10.23;8.93;;;;;;;;;;5024616;28;20569;-65
2022/06/30 02:18:55;;;;;;;9.75;8.75;;;;;;;;;;5024731;28;20212;-65
2022/06/30 02:21:21;;;;;;;11.90;9.18;;;;;;;;;;5035272;28;20670;-65
2022/06/30 02:23:46;;;;;;;11.32;8.52;;;;;;;;;;5016517;28;20239;-65
2022/06/30 02:26:11;;;;;;;10.90;9.27;;;;;;;;;;5035090;28;20207;-65
2022/06/30 02:28:37;;;;;;;10.68;8.60;;;;;;;;;;5040949;28;20214;-65
2022/06/30 02:31:02;;;;;;;10.38;8.38;;;;;;;;;;5025193;28;20538;-65
2022/06/30 02:33:27;;;;;;;9.55;7.85;;;;;;;;;;5044178;28;20666;-65
2022/06/30 02:35:53;;;;;;;9.68;8.68;;;;;;;;;;5043149;28;20211;-65
2022/06/30 02:38:18;;;;;;;10.07;8.95;;;;;;;;;;5043281;28;20219;-65
2022/06/30 02:40:43;;;;;;;9.68;8.68;;;;;;;;;;5042892;28;20317;-65
2022/06/30 02:43:08;;;;;;;12.43;9.07;;;;;;;;;;5039832;28;20265;-65
2022/06/30 02:45:34;;;;;;;9.98;8.95;;;;;;;;;;5016501;28;20247;-65
2022/06/30 02:47:59;;;;;;;11.18;9.85;;;;;;;;;;5025737;28;20239;-66
2022/06/30 02:50:24;;;;;;;11.57;8.48;;;;;;;;;;5037759;28;20199;-66
2022/06/30 02:52:50;;;;;;;14.77;8.63;;;;;;;;;;5043363;28;20245;-66
2022/06/30 02:55:15;;;;;;;10.45;9.20;;;;;;;;;;5041776;28;20211;-66
2022/06/30 02:57:40;;;;;;;8.93;8.02;;;;;;;;;;5043206;28;20226;-66
2022/06/30 03:00:06;;;;;;;11.10;9.10;;;;;;;;;;5042568;28;20576;-65
2022/06/30 03:02:32;;;;;;;10.55;9.45;;;;;;;;;;5042444;28;20234;-66
2022/06/30 03:04:57;;;;;;;11.20;9.77;;;;;;;;;;5042972;28;20576;-66
2022/06/30 03:07:22;;;;;;;11.80;10.10;;;;;;;;;;5035348;28;20305;-66
2022/06/30 03:09:48;;;;;;;11.55;9.82;;;;;;;;;;5034865;28;20207;-66
2022/06/30 03:12:13;;;;;;;12.55;9.70;;;;;;;;;;5032604;28;20581;-66
2022/06/30 03:14:38;;;;;;;11.13;10.02;;;;;;;;;;5023329;28;20222;-66
2022/06/30 03:17:04;;;;;;;12.52;9.65;;;;;;;;;;5021987;28;20207;-66
2022/06/30 03:19:29;;;;;;;10.73;9.65;;;;;;;;;;5023712;28;21238;-65
2022/06/30 03:21:54;;;;;;;10.27;8.98;;;;;;;;;;5031883;28;20223;-66
2022/06/30 03:24:20;;;;;;;11.60;10.35;;;;;;;;;;5041453;28;20300;-66
2022/06/30 03:26:46;;;;;;;14.23;9.82;;;;;;;;;;5042687;28;20682;-66
2022/06/30 03:29:11;;;;;;;12.00;9.10;;;;;;;;;;5036371;28;20317;-66
2022/06/30 03:31:37;;;;;;;13.05;10.27;;;;;;;;;;5018336;28;20227;-66
2022/06/30 03:34:02;;;;;;;12.93;9.40;;;;;;;;;;5034059;28;20247;-66
2022/06/30 03:36:28;;;;;;;12.02;9.60;;;;;;;;;;5040349;28;20262;-66
2022/06/30 03:38:53;;;;;;;12.30;9.75;;;;;;;;;;5041717;28;20253;-66
2022/06/30 03:41:18;;;;;;;10.20;9.20;;;;;;;;;;5041859;28;20211;-66
2022/06/30 03:43:44;;;;;;;12.33;10.37;;;;;;;;;;5036658;28;20468;-64
2022/06/30 03:46:09;;;;;;;11.43;9.90;;;;;;;;;;5021877;28;20269;-63
2022/06/30 03:48:35;;;;;;;11.68;9.98;;;;;;;;;;5022777;28;20200;-63
2022/06/30 03:51:01;;;;;;;12.43;10.23;;;;;;;;;;5018948;28;20795;-62
2022/06/30 03:53:27;;;;;;;10.85;9.40;;;;;;;;;;5033654;28;21158;-62
2022/06/30 03:55:52;;;;;;;10.75;9.35;;;;;;;;;;5033715;28;20306;-62
2022/06/30 03:58:17;;;;;;;10.70;9.60;;;;;;;;;;5025440;28;20291;-62
2022/06/30 04:00:43;;;;;;;10.70;9.55;;;;;;;;;;5023495;28;20220;-62
2022/06/30 04:03:08;;;;;;;10.93;9.50;;;;;;;;;;5023565;28;20219;-61
2022/06/30 04:05:33;;;;;;;11.75;9.50;;;;;;;;;;5023838;28;20207;-61
2022/06/30 04:07:58;;;;;;;11.70;10.02;;;;;;;;;;5023265;28;20604;-62
2022/06/30 04:10:24;;;;;;;11.77;10.38;;;;;;;;;;5022147;28;20358;-63
2022/06/30 04:12:49;;;;;;;10.73;9.63;;;;;;;;;;5032647;28;20207;-61
2022/06/30 04:15:14;;;;;;;10.70;9.55;;;;;;;;;;5038333;28;20210;-61
2022/06/30 04:17:40;;;;;;;9.80;8.80;;;;;;;;;;5039852;28;20214;-61
2022/06/30 04:20:06;;;;;;;12.20;9.55;;;;;;;;;;5042934;28;20606;-61
2022/06/30 04:22:31;;;;;;;12.55;10.45;;;;;;;;;;5025239;28;20609;-60
2022/06/30 04:24:57;;;;;;;12.23;10.90;;;;;;;;;;5044413;28;20215;-61
2022/06/30 04:27:22;;;;;;;12.65;9.57;;;;;;;;;;5033765;28;20675;-61
2022/06/30 04:29:47;;;;;;;12.05;10.38;;;;;;;;;;5050709;28;20214;-61
2022/06/30 04:34:56;;;;;;;11.18;10.07;;;;;;;;;;5051241;28;20218;-61
2022/06/30 04:37:22;;;;;;;10.95;9.68;;;;;;;;;;5050892;28;20203;-61
2022/06/30 04:39:47;;;;;;;11.30;9.45;;;;;;;;;;5051304;28;20584;-61
2022/06/30 04:42:12;;;;;;;10.52;9.15;;;;;;;;;;5049961;28;20207;-61
2022/06/30 04:44:38;;;;;;;10.32;8.90;;;;;;;;;;5051323;28;20305;-61
2022/06/30 04:47:03;;;;;;;12.68;9.77;;;;;;;;;;5050911;28;20244;-61
2022/06/30 04:49:28;;;;;;;11.85;9.48;;;;;;;;;;5050722;28;20215;-62
2022/06/30 04:51:54;;;;;;;10.63;9.52;;;;;;;;;;5051305;28;20223;-61
2022/06/30 04:54:19;;;;;;;11.60;9.88;;;;;;;;;;5050596;28;20344;-62
2022/06/30 04:56:44;;;;;;;12.27;9.50;;;;;;;;;;5050367;28;20284;-61
2022/06/30 04:59:09;;;;;;;11.93;10.57;;;;;;;;;;5050164;28;20616;-61
2022/06/30 05:01:35;;;;;;;15.60;14.00;;;;;;;;;;5032916;28;20207;-61
2022/06/30 05:04:00;;;;;;;15.15;11.70;;;;;;;;;;5051290;28;20673;-61
2022/06/30 05:06:25;;;;;;;14.10;11.55;;;;;;;;;;5051088;28;20753;-62
2022/06/30 05:08:51;;;;;;;11.57;10.48;;;;;;;;;;5050217;28;20733;-61
2022/06/30 05:11:16;;;;;;;11.43;9.98;;;;;;;;;;5050387;28;20227;-62
2022/06/30 05:13:41;;;;;;;11.95;10.23;;;;;;;;;;5050345;28;20213;-61
2022/06/30 05:16:06;;;;;;;11.40;9.65;;;;;;;;;;5050057;28;20215;-61
2022/06/30 05:18:32;;;;;;;11.80;10.48;;;;;;;;;;5051096;28;20253;-61
2022/06/30 05:20:57;;;;;;;10.73;9.32;;;;;;;;;;5051029;28;20564;-62
2022/06/30 05:23:22;;;;;;;16.15;13.15;;;;;;;;;;5049364;28;20268;-61
2022/06/30 05:28:32;;;;;;;18.08;16.23;;;;;;;;;;5054443;28;20214;-61
2022/06/30 05:30:57;;;;;;;18.98;17.08;;;;;;;;;;5054419;28;20210;-61
2022/06/30 05:33:22;;;;;;;19.92;17.83;;;;;;;;;;5054807;28;20364;-61
2022/06/30 05:35:48;;;;;;;21.90;18.40;;;;;;;;;;5054750;28;20635;-61
2022/06/30 05:38:14;;;;;;;21.38;18.17;;;;;;;;;;5053562;28;20219;-61
2022/06/30 05:40:39;;;;;;;21.83;19.55;;;;;;;;;;5036877;28;20257;-61
2022/06/30 05:43:04;;;;;;;21.83;19.63;;;;;;;;;;5054059;28;20211;-61
2022/06/30 05:45:30;;;;;;;22.08;19.77;;;;;;;;;;5053900;28;20231;-61
2022/06/30 05:47:55;;;;;;;20.83;18.73;;;;;;;;;;5055132;28;20306;-61
2022/06/30 05:50:21;;;;;;;21.17;18.95;;;;;;;;;;5054010;28;20263;-61
2022/06/30 05:52:46;;;;;;;20.30;18.30;;;;;;;;;;5053742;28;20302;-61
2022/06/30 05:55:12;;;;;;;21.60;19.35;;;;;;;;;;5054057;28;20276;-62
2022/06/30 05:57:48;;;;;;;19.05;17.15;;;;;;;;;;5054467;28;20265;-61
2022/06/30 06:00:14;;;;;;;22.58;19.58;;;;;;;;;;5053666;28;20226;-61
2022/06/30 06:02:39;;;;;;;25.75;20.55;;;;;;;;;;5054724;28;20559;-61
2022/06/30 06:05:04;;;;;;;22.85;19.65;;;;;;;;;;5052944;28;20585;-62
2022/06/30 06:07:30;;;;;;;21.90;19.63;;;;;;;;;;5054272;28;20215;-61
2022/06/30 06:09:55;;;;;;;23.02;20.70;;;;;;;;;;5053946;28;20214;-61
2022/06/30 06:12:22;;;;;;;25.15;20.08;;;;;;;;;;5052808;28;20234;-61
2022/06/30 06:14:47;;;;;;;22.00;19.77;;;;;;;;;;5054259;28;20694;-61
2022/06/30 06:17:12;;;;;;;22.92;20.70;;;;;;;;;;5053967;28;20207;-61
2022/06/30 06:19:37;;;;;;;21.75;19.45;;;;;;;;;;5052974;28;20290;-61
2022/06/30 06:22:03;;;;;;;21.92;19.60;;;;;;;;;;5053568;28;20333;-61
2022/06/30 06:24:28;;;;;;;22.42;19.60;;;;;;;;;;5053623;28;20223;-61
2022/06/30 06:26:54;;;;;;;23.27;20.85;;;;;;;;;;5053207;28;20580;-61
2022/06/30 06:29:20;;;;;;;22.98;20.52;;;;;;;;;;5053651;28;20211;-61
2022/06/30 06:31:45;;;;;;;23.67;20.92;;;;;;;;;;5053707;28;20573;-61
2022/06/30 06:34:11;;;;;;;23.30;20.85;;;;;;;;;;5052776;28;20215;-62
2022/06/30 06:36:36;;;;;;;22.05;19.63;;;;;;;;;;5053346;28;20269;-61
2022/06/30 06:39:01;;;;;;;21.52;19.23;;;;;;;;;;5052343;28;20211;-62
2022/06/30 06:41:27;;;;;;;23.40;20.98;;;;;;;;;;5052739;28;20226;-61
2022/06/30 06:43:52;;;;;;;21.65;19.55;;;;;;;;;;5053649;28;20231;-61
2022/06/30 06:46:17;;;;;;;20.60;18.50;;;;;;;;;;5053162;28;20553;-61
2022/06/30 06:48:43;;;;;;;23.90;21.05;;;;;;;;;;5052908;28;20553;-61
2022/06/30 06:51:08;;;;;;;24.05;19.75;;;;;;;;;;5035007;28;20222;-61
2022/06/30 06:53:34;;;;;;;22.33;19.63;;;;;;;;;;5053310;28;20211;-61
2022/06/30 06:56:00;;;;;;;23.65;21.15;;;;;;;;;;5052583;28;20219;-61
2022/06/30 06:58:25;;;;;;;23.70;21.25;;;;;;;;;;5052723;28;20219;-61
2022/06/30 07:00:52;;;;;;;23.52;19.85;;;;;;;;;;5053378;28;20200;-61
2022/06/30 07:03:18;;;;;;;21.17;18.95;;;;;;;;;;5052061;28;20207;-61
2022/06/30 07:05:43;;;;;;;18.88;16.63;;;;;;;;;;5053097;28;20230;-61
2022/06/30 07:08:08;;;;;;;19.73;16.60;;;;;;;;;;5051987;28;20553;-61
2022/06/30 07:10:34;;;;;;;21.92;17.75;;;;;;;;;;5052872;28;20571;-61
2022/06/30 07:12:59;;;;;;;20.85;18.63;;;;;;;;;;5053007;28;20589;-61
2022/06/30 07:15:24;;;;;;;21.40;19.20;;;;;;;;;;5051948;28;20654;-61
2022/06/30 07:17:50;;;;;;;21.13;18.85;;;;;;;;;;5053075;28;20219;-62
2022/06/30 07:20:15;;;;;;;21.42;18.85;;;;;;;;;;5052363;28;20219;-61
2022/06/30 07:22:40;;;;;;;19.92;17.83;;;;;;;;;;5052073;28;20573;-61
2022/06/30 07:25:06;;;;;;;22.65;20.25;;;;;;;;;;5051858;28;20250;-62
2022/06/30 07:27:31;;;;;;;22.92;18.48;;;;;;;;;;5052629;28;20207;-62
2022/06/30 07:29:57;;;;;;;20.08;17.23;;;;;;;;;;5052108;28;20228;-61
2022/06/30 07:32:22;;;;;;;23.45;17.75;;;;;;;;;;5052403;28;20231;-61
2022/06/30 07:34:47;;;;;;;20.77;16.52;;;;;;;;;;5052792;28;20218;-61
2022/06/30 07:37:13;;;;;;;20.50;15.57;;;;;;;;;;5050931;28;20215;-61
2022/06/30 07:39:38;;;;;;;16.48;12.45;;;;;;;;;;5052512;28;20210;-61
2022/06/30 07:42:03;;;;;;;14.45;11.48;;;;;;;;;;5051992;28;20211;-61
2022/06/30 07:44:29;;;;;;;15.38;13.02;;;;;;;;;;5051565;28;20219;-61
2022/06/30 07:46:54;;;;;;;14.85;13.25;;;;;;;;;;5034666;28;20214;-61
2022/06/30 07:49:19;;;;;;;13.77;10.45;;;;;;;;;;5051114;28;20219;-61
2022/06/30 07:51:45;;;;;;;13.98;11.63;;;;;;;;;;5051147;28;20207;-61
2022/06/30 07:54:10;;;;;;;15.48;12.27;;;;;;;;;;5051879;28;20286;-61
2022/06/30 07:56:35;;;;;;;15.48;11.63;;;;;;;;;;5052098;28;20207;-61
2022/06/30 07:59:01;;;;;;;17.50;11.05;;;;;;;;;;5050907;28;20231;-62
2022/06/30 08:01:26;;;;;;;13.82;9.73;;;;;;;;;;5052154;28;20206;-61
2022/06/30 08:03:51;;;;;;;16.20;10.63;;;;;;;;;;5052141;28;20313;-61
2022/06/30 08:06:17;;;;;;;12.50;9.82;;;;;;;;;;5050819;28;20213;-61
2022/06/30 08:08:42;;;;;;;16.00;9.82;;;;;;;;;;5051932;28;20203;-61
2022/06/30 08:11:08;;;;;;;14.25;10.23;;;;;;;;;;5051072;28;20305;-61
2022/06/30 08:13:33;;;;;;;13.82;10.85;;;;;;;;;;5051135;28;20272;-61
2022/06/30 08:15:59;;;;;;;12.10;8.85;;;;;;;;;;5052023;28;20215;-61
2022/06/30 08:18:24;;;;;;;15.27;9.80;;;;;;;;;;5050689;28;20249;-61
2022/06/30 08:20:49;;;;;;;15.20;10.45;;;;;;;;;;5051993;28;20215;-61
2022/06/30 08:23:15;;;;;;;14.73;10.90;;;;;;;;;;5050908;28;20207;-61
2022/06/30 08:25:40;;;;;;;16.05;12.02;;;;;;;;;;5050734;28;20269;-61
2022/06/30 08:28:05;;;;;;;17.38;14.27;;;;;;;;;;5051018;28;20685;-61
2022/06/30 08:30:31;;;;;;;17.95;13.30;;;;;;;;;;5051630;28;20207;-61
2022/06/30 08:32:56;;;;;;;15.43;13.77;;;;;;;;;;5050802;28;20211;-61
2022/06/30 08:35:21;;;;;;;19.33;13.40;;;;;;;;;;5051239;28;20265;-61
2022/06/30 08:37:47;;;;;;;17.00;13.20;;;;;;;;;;5051214;28;20238;-61
2022/06/30 08:42:56;;;;;;;19.65;16.20;;;;;;;;;;5051644;28;20218;-61
2022/06/30 08:45:24;;;;;;;17.42;13.48;;;;;;;;;;5051015;28;20227;-61
2022/06/30 08:47:49;;;;;;;16.63;11.48;;;;;;;;;;5033076;28;20299;-61
2022/06/30 08:50:16;;;;;;;14.48;11.43;;;;;;;;;;5050939;28;20290;-61
2022/06/30 08:52:41;;;;;;;17.75;11.57;;;;;;;;;;5051062;28;20260;-61
2022/06/30 08:55:07;;;;;;;13.85;10.50;;;;;;;;;;5049871;28;20632;-61
2022/06/30 08:57:32;;;;;;;16.13;11.88;;;;;;;;;;5051349;28;20207;-61
2022/06/30 08:59:58;;;;;;;14.95;9.95;;;;;;;;;;5033301;28;20250;-61
2022/06/30 09:02:23;;;;;;;19.83;10.43;;;;;;;;;;5050119;28;20293;-60
2022/06/30 09:04:49;;;;;;;13.13;9.35;;;;;;;;;;5051066;28;20223;-61
2022/06/30 09:07:14;;;;;;;15.18;9.77;;;;;;;;;;5050532;28;20582;-61
2022/06/30 09:09:39;;;;;;;14.18;10.45;;;;;;;;;;5050210;28;20705;-61
2022/06/30 09:12:12;;;;;;;12.98;9.55;;;;;;;;;;5050626;28;20253;-61
2022/06/30 09:14:40;;;;;;;15.00;10.52;;;;;;;;;;5050463;28;20290;-61
2022/06/30 09:17:06;;;;;;;13.80;10.05;;;;;;;;;;5050924;28;20237;-61
2022/06/30 09:19:32;;;;;;;17.13;9.75;;;;;;;;;;5050862;28;20199;-61
2022/06/30 09:22:02;;;;;;;12.45;9.88;;;;;;;;;;5050209;28;20233;-61
2022/06/30 09:24:27;;;;;;;13.00;8.95;;;;;;;;;;5050040;28;20257;-61
2022/06/30 09:27:10;;;;;;;12.80;7.75;;;;;;;;;;5051122;28;20235;-61
2022/06/30 09:29:55;;;;;;;10.68;6.88;;;;;;;;;;5050027;28;20692;-61
2022/06/30 09:32:21;;;;;;;11.93;6.20;;;;;;;;;;5030374;28;20219;-61
2022/06/30 09:34:47;;;;;;;9.75;5.00;;;;;;;;;;5030758;28;20310;-61
2022/06/30 09:37:14;;;;;;;7.05;4.25;;;;;;;;;;5029680;28;20215;-61
2022/06/30 09:39:41;;;;;;;7.55;3.85;;;;;;;;;;5030904;28;20227;-61
2022/06/30 09:42:06;;;;;;;6.10;2.67;;;;;;;;;;5030669;28;20216;-61
2022/06/30 09:44:34;;;;;;;5.18;2.10;;;;;;;;;;5041619;28;20727;-61
2022/06/30 09:47:01;;;;;;;6.97;2.20;;;;;;;;;;5050589;28;20241;-61
2022/06/30 09:49:27;;;;;;;8.25;2.15;;;;;;;;;;5050272;28;20536;-61
2022/06/30 09:51:52;;;;;;;6.40;2.20;;;;;;;;;;5050052;28;20237;-61
2022/06/30 09:54:18;;;;;;;8.43;2.00;;;;;;;;;;5050244;28;20215;-61
2022/06/30 09:56:49;;;;;;;6.57;2.20;;;;;;;;;;5050970;28;20199;-61
2022/06/30 09:59:22;;;;;;;7.57;2.58;;;;;;;;;;5028785;28;20240;-61
2022/06/30 10:01:49;;;;;;;7.03;2.67;;;;;;;;;;5030797;28;20273;-61
2022/06/30 10:04:17;;;;;;;7.07;2.72;;;;;;;;;;5029181;28;20223;-61
2022/06/30 10:06:42;;;;;;;5.40;2.30;;;;;;;;;;5029797;28;20223;-61
2022/06/30 10:09:07;;;;;;;5.75;2.40;;;;;;;;;;5030651;28;20223;-61
2022/06/30 10:11:33;;;;;;;4.57;2.40;;;;;;;;;;5030308;28;20211;-61
2022/06/30 10:13:58;;;;;;;7.10;2.38;;;;;;;;;;5032898;28;20250;-61
2022/06/30 10:16:23;;;;;;;9.07;2.72;;;;;;;;;;5033810;28;20242;-61
2022/06/30 10:18:49;;;;;;;6.53;2.55;;;;;;;;;;5033491;28;20262;-60
2022/06/30 10:21:14;;;;;;;6.95;2.25;;;;;;;;;;5033679;28;20211;-61
2022/06/30 10:23:40;;;;;;;5.05;2.38;;;;;;;;;;5031225;28;20212;-61
2022/06/30 10:26:07;;;;;;;6.88;3.03;;;;;;;;;;4995684;28;20213;-61
2022/06/30 10:28:32;;;;;;;7.13;3.38;;;;;;;;;;4993429;28;20755;-61
2022/06/30 10:31:09;;;;;;;8.15;2.55;;;;;;;;;;5015800;28;20219;-60
2022/06/30 10:33:38;;;;;;;6.57;2.33;;;;;;;;;;5033020;28;20610;-61
2022/06/30 10:36:05;;;;;;;4.68;2.40;;;;;;;;;;5032313;28;20212;-61
2022/06/30 10:38:34;;;;;;;6.47;2.47;;;;;;;;;;5034328;28;20211;-61
2022/06/30 10:41:11;;;;;;;9.27;2.55;;;;;;;;;;5031646;28;20215;-60
2022/06/30 10:43:54;;;;;;;5.85;2.25;;;;;;;;;;5029349;28;20216;-61
2022/06/30 10:46:20;;;;;;;4.65;2.13;;;;;;;;;;5012847;28;20216;-60
2022/06/30 10:48:54;;;;;;;8.45;2.25;;;;;;;;;;5014188;28;20551;-61
2022/06/30 10:51:21;;;;;;;4.18;1.90;;;;;;;;;;5013223;28;20223;-61
2022/06/30 10:53:47;;;;;;;6.35;1.90;;;;;;;;;;5012949;28;20209;-60
2022/06/30 10:56:12;;;;;;;6.25;1.80;;;;;;;;;;5013160;28;20633;-61
2022/06/30 10:58:37;;;;;;;6.75;1.90;;;;;;;;;;5022707;28;20314;-61
2022/06/30 11:01:12;;;;;;;5.97;1.85;;;;;;;;;;5033975;28;20211;-61
2022/06/30 11:03:38;;;;;;;4.50;1.52;;;;;;;;;;5041747;28;20589;-61
2022/06/30 11:06:05;;;;;;;4.18;1.73;;;;;;;;;;5032707;28;20211;-61
2022/06/30 11:08:47;;;;;;;7.07;1.92;;;;;;;;;;5032360;28;20247;-60
2022/06/30 11:11:19;;;;;;;5.65;1.60;;;;;;;;;;5032668;28;20734;-61
2022/06/30 11:13:44;;;;;;;5.90;1.83;;;;;;;;;;5033425;28;20212;-60
2022/06/30 11:16:10;;;;;;;4.90;1.50;;;;;;;;;;5014514;28;20581;-61
2022/06/30 11:18:35;;;;;;;4.47;1.50;;;;;;;;;;5015192;28;20642;-61
2022/06/30 11:21:01;;;;;;;4.25;1.55;;;;;;;;;;5032299;28;20254;-62
2022/06/30 11:23:26;;;;;;;6.72;1.73;;;;;;;;;;5031848;28;20207;-61
2022/06/30 11:28:36;;;;;;;7.05;1.85;;;;;;;;;;5032109;28;20233;-61
2022/06/30 11:31:02;;;;;;;7.70;1.58;;;;;;;;;;5032294;28;20216;-61
2022/06/30 11:33:27;;;;;;;4.57;1.70;;;;;;;;;;5032632;28;20588;-60
2022/06/30 11:36:03;;;;;;;5.68;1.90;;;;;;;;;;5031747;28;20223;-61
2022/06/30 11:38:28;;;;;;;7.82;1.80;;;;;;;;;;5032373;28;20208;-61
2022/06/30 11:41:54;;;;;;;7.05;1.70;;;;;;;;;;5032783;28;20736;-60
2022/06/30 11:43:39;;;;;;;9.23;1.70;;;;;;;;;;5051035;28;20214;-61
2022/06/30 11:46:04;;;;;;;6.07;1.70;;;;;;;;;;5034974;28;20215;-61
2022/06/30 11:48:30;;;;;;;5.88;1.63;;;;;;;;;;5032186;28;20671;-61
2022/06/30 11:50:55;;;;;;;7.10;1.85;;;;;;;;;;5031537;28;20219;-60
2022/06/30 11:53:20;;;;;;;10.05;2.22;;;;;;;;;;5032181;28;20242;-61
2022/06/30 11:55:46;;;;;;;6.45;2.00;;;;;;;;;;5032506;28;20238;-61
2022/06/30 11:58:12;;;;;;;9.88;2.10;;;;;;;;;;5030867;28;20283;-61
2022/06/30 12:00:37;;;;;;;4.95;2.00;;;;;;;;;;5032022;28;20700;-59
2022/06/30 12:03:04;;;;;;;6.32;1.98;;;;;;;;;;5031571;28;20225;-59
2022/06/30 12:05:29;;;;;;;6.30;2.10;;;;;;;;;;5031231;28;20307;-59
2022/06/30 12:07:55;;;;;;;6.50;2.20;;;;;;;;;;5032221;28;20306;-58
2022/06/30 12:10:22;;;;;;;8.77;2.22;;;;;;;;;;5032039;28;20250;-59
2022/06/30 12:12:48;;;;;;;5.82;2.20;;;;;;;;;;5031080;28;20246;-58
2022/06/30 12:15:15;;;;;;;6.75;1.90;;;;;;;;;;5031469;28;20207;-59
2022/06/30 12:17:41;;;;;;;6.65;1.90;;;;;;;;;;5031109;28;20207;-59
2022/06/30 12:20:07;;;;;;;5.93;2.50;;;;;;;;;;5031153;28;20246;-59
2022/06/30 12:22:32;;;;;;;6.68;2.03;;;;;;;;;;5032110;28;20224;-61
2022/06/30 12:24:58;;;;;;;5.95;2.13;;;;;;;;;;5038797;28;20408;-61
2022/06/30 12:27:25;;;;;;;7.85;2.28;;;;;;;;;;5033328;28;20230;-61
2022/06/30 12:29:58;;;;;;;6.10;2.00;;;;;;;;;;5050712;28;20229;-60
2022/06/30 12:32:23;;;;;;;5.15;1.88;;;;;;;;;;5050256;28;20215;-60
2022/06/30 12:34:50;;;;;;;5.55;2.00;;;;;;;;;;5051672;28;20284;-60
2022/06/30 12:37:15;;;;;;;7.45;2.97;;;;;;;;;;5050851;28;20677;-59
2022/06/30 12:39:43;;;;;;;6.03;2.45;;;;;;;;;;5050713;28;20203;-60
2022/06/30 12:42:09;;;;;;;8.07;2.28;;;;;;;;;;5050603;28;20210;-61
2022/06/30 12:44:35;;;;;;;7.03;1.90;;;;;;;;;;5041529;28;20223;-61
2022/06/30 12:47:02;;;;;;;6.03;2.10;;;;;;;;;;5046296;28;20238;-61
2022/06/30 12:49:28;;;;;;;9.98;2.20;;;;;;;;;;5042164;28;20210;-61
2022/06/30 12:51:53;;;;;;;6.55;2.05;;;;;;;;;;5040604;28;20342;-61
2022/06/30 12:54:21;;;;;;;6.00;2.22;;;;;;;;;;5039460;28;20565;-60
2022/06/30 12:56:50;;;;;;;5.50;2.10;;;;;;;;;;5041463;28;20218;-61
2022/06/30 12:59:16;;;;;;;7.90;2.25;;;;;;;;;;5012022;28;20236;-61
2022/06/30 13:01:44;;;;;;;8.77;1.65;;;;;;;;;;5010625;28;20212;-60
2022/06/30 13:04:11;;;;;;;8.20;1.92;;;;;;;;;;5014450;28;20551;-61
2022/06/30 13:06:38;;;;;;;4.82;1.77;;;;;;;;;;5029153;28;20215;-61
2022/06/30 13:09:05;;;;;;;6.10;2.17;;;;;;;;;;5037299;28;20211;-60
2022/06/30 13:11:31;;;;;;;5.20;1.92;;;;;;;;;;5031123;28;20224;-61
2022/06/30 13:13:56;;;;;;;5.22;1.95;;;;;;;;;;5030070;28;20214;-61
2022/06/30 13:16:22;;;;;;;5.22;2.00;;;;;;;;;;5030815;28;20693;-61
2022/06/30 13:18:48;;;;;;;5.47;2.03;;;;;;;;;;5031198;28;20517;-61
2022/06/30 13:21:14;;;;;;;4.53;2.03;;;;;;;;;;5029939;28;20219;-61
2022/06/30 13:23:39;;;;;;;5.35;1.85;;;;;;;;;;5031222;28;20235;-61
2022/06/30 13:26:05;;;;;;;10.10;1.88;;;;;;;;;;5047544;28;20215;-61
2022/06/30 13:28:30;;;;;;;5.63;1.70;;;;;;;;;;5050097;28;20589;-60
2022/06/30 13:30:55;;;;;;;5.88;1.98;;;;;;;;;;5047568;28;20226;-61
2022/06/30 13:33:21;;;;;;;5.60;1.70;;;;;;;;;;5050479;28;20218;-60
2022/06/30 13:35:46;;;;;;;4.63;1.55;;;;;;;;;;5050080;28;20203;-61
2022/06/30 13:38:11;;;;;;;3.97;1.60;;;;;;;;;;5050688;28;20216;-61
2022/06/30 13:40:37;;;;;;;5.53;1.60;;;;;;;;;;5050738;28;20246;-60
2022/06/30 13:43:02;;;;;;;6.45;2.10;;;;;;;;;;5049583;28;20214;-61
2022/06/30 13:45:28;;;;;;;4.05;1.80;;;;;;;;;;5038156;28;20228;-61
2022/06/30 13:47:53;;;;;;;5.63;1.73;;;;;;;;;;5040011;28;20220;-61
2022/06/30 13:50:19;;;;;;;11.20;2.38;;;;;;;;;;5032898;28;20574;-61
2022/06/30 13:52:44;;;;;;;6.68;1.80;;;;;;;;;;5035024;28;20713;-61
2022/06/30 13:55:10;;;;;;;5.53;2.05;;;;;;;;;;5033967;28;20215;-61
2022/06/30 13:57:35;;;;;;;8.07;3.40;;;;;;;;;;5033771;28;20262;-60
2022/06/30 14:00:02;;;;;;;8.48;3.50;;;;;;;;;;5033492;28;20269;-62
2022/06/30 14:02:27;;;;;;;7.85;3.42;;;;;;;;;;5034380;28;20694;-61
2022/06/30 14:04:53;;;;;;;11.60;3.40;;;;;;;;;;5033578;28;20246;-61
2022/06/30 14:07:18;;;;;;;6.68;3.10;;;;;;;;;;5034180;28;20290;-61
2022/06/30 14:09:44;;;;;;;10.30;3.33;;;;;;;;;;5034289;28;20318;-61
2022/06/30 14:12:09;;;;;;;9.98;2.85;;;;;;;;;;5032963;28;20212;-60
2022/06/30 14:14:35;;;;;;;7.90;2.90;;;;;;;;;;5033920;28;20295;-61
2022/06/30 14:17:00;;;;;;;8.65;2.63;;;;;;;;;;5033966;28;20220;-60
2022/06/30 14:19:25;;;;;;;10.32;3.00;;;;;;;;;;5041496;28;20211;-60
2022/06/30 14:21:51;;;;;;;7.30;3.17;;;;;;;;;;5034310;28;20208;-60
2022/06/30 14:24:16;;;;;;;8.13;3.55;;;;;;;;;;5015326;28;20581;-61
2022/06/30 14:26:42;;;;;;;8.90;2.92;;;;;;;;;;5033838;28;20681;-60
2022/06/30 14:29:09;;;;;;;6.28;2.42;;;;;;;;;;5033367;28;20207;-60
2022/06/30 14:31:35;;;;;;;8.70;3.15;;;;;;;;;;5032956;28;20222;-60
2022/06/30 14:34:00;;;;;;;8.18;3.10;;;;;;;;;;5033962;28;20216;-60
2022/06/30 14:36:25;;;;;;;6.57;2.97;;;;;;;;;;5053619;28;20718;-60
2022/06/30 14:38:51;;;;;;;7.97;2.72;;;;;;;;;;5053256;28;20777;-61
2022/06/30 14:42:43;;;;;;;8.23;2.42;;;;;;;;;;5052994;28;20238;-61